sensor_id;sensor_type;location;lat;lon;timestamp;temperature;humidity
21744;DHT22;11034;48.556;9.342;2022-11-23T00:01:13;3.30;99.90
21744;DHT22;11034;48.556;9.342;2022-11-23T00:03:41;3.30;99.90
21744;DHT22;11034;48.556;9.342;2022-11-23T00:06:10;3.40;99.90
21744;DHT22;11034;48.556;9.342;2022-11-23T00:08:39;3.30;99.90
21744;DHT22;11034;48.556;9.342;2022-11-23T00:11:07;3.40;99.90
21744;DHT22;11034;48.556;9.342;2022-11-23T00:13:36;3.40;99.90
21744;DHT22;11034;48.556;9.342;2022-11-23T00:16:06;3.40;99.90
21744;DHT22;11034;48.556;9.342;2022-11-23T00:18:34;3.50;99.90
21744;DHT22;11034;48.556;9.342;2022-11-23T00:21:06;3.60;99.90
21744;DHT22;11034;48.556;9.342;2022-11-23T00:23:36;3.70;99.90
21744;DHT22;11034;48.556;9.342;2022-11-23T00:26:05;3.80;99.90
21744;DHT22;11034;48.556;9.342;2022-11-23T00:28:33;3.90;99.90
21744;DHT22;11034;48.556;9.342;2022-11-23T00:31:04;4.00;99.90
21744;DHT22;11034;48.556;9.342;2022-11-23T00:33:33;4.10;99.90
21744;DHT22;11034;48.556;9.342;2022-11-23T00:36:03;4.20;99.90
21744;DHT22;11034;48.556;9.342;2022-11-23T00:38:31;4.10;99.90
21744;DHT22;11034;48.556;9.342;2022-11-23T00:41:03;3.90;99.90
21744;DHT22;11034;48.556;9.342;2022-11-23T00:43:32;3.80;99.90
21744;DHT22;11034;48.556;9.342;2022-11-23T00:46:05;3.80;99.90
21744;DHT22;11034;48.556;9.342;2022-11-23T00:48:34;3.70;99.90
21744;DHT22;11034;48.556;9.342;2022-11-23T00:51:03;3.70;99.90
21744;DHT22;11034;48.556;9.342;2022-11-23T00:53:31;3.60;99.90
21744;DHT22;11034;48.556;9.342;2022-11-23T00:56:01;3.70;99.90
21744;DHT22;11034;48.556;9.342;2022-11-23T00:58:29;3.60;99.90
21744;DHT22;11034;48.556;9.342;2022-11-23T01:01:01;3.60;99.90
21744;DHT22;11034;48.556;9.342;2022-11-23T01:03:30;3.70;99.90
21744;DHT22;11034;48.556;9.342;2022-11-23T01:06:05;3.70;99.90
21744;DHT22;11034;48.556;9.342;2022-11-23T01:08:34;3.70;99.90
21744;DHT22;11034;48.556;9.342;2022-11-23T01:11:05;3.60;99.90
21744;DHT22;11034;48.556;9.342;2022-11-23T01:13:34;3.70;99.90
21744;DHT22;11034;48.556;9.342;2022-11-23T01:16:02;3.70;99.90
21744;DHT22;11034;48.556;9.342;2022-11-23T01:18:30;3.70;99.90
21744;DHT22;11034;48.556;9.342;2022-11-23T01:21:00;3.60;99.90
21744;DHT22;11034;48.556;9.342;2022-11-23T01:23:28;3.50;99.90
21744;DHT22;11034;48.556;9.342;2022-11-23T01:25:56;3.60;99.90
21744;DHT22;11034;48.556;9.342;2022-11-23T01:28:27;3.60;99.90
21744;DHT22;11034;48.556;9.342;2022-11-23T01:31:01;3.50;99.90
21744;DHT22;11034;48.556;9.342;2022-11-23T01:33:29;3.50;99.90
21744;DHT22;11034;48.556;9.342;2022-11-23T01:35:57;3.40;99.90
21744;DHT22;11034;48.556;9.342;2022-11-23T01:38:25;3.50;99.90
21744;DHT22;11034;48.556;9.342;2022-11-23T01:40:53;3.50;99.90
21744;DHT22;11034;48.556;9.342;2022-11-23T01:43:21;3.50;99.90
21744;DHT22;11034;48.556;9.342;2022-11-23T01:45:57;3.50;99.90
21744;DHT22;11034;48.556;9.342;2022-11-23T01:48:28;3.70;99.90
21744;DHT22;11034;48.556;9.342;2022-11-23T01:50:59;3.80;99.90
21744;DHT22;11034;48.556;9.342;2022-11-23T01:53:28;3.80;99.90
21744;DHT22;11034;48.556;9.342;2022-11-23T01:55:59;3.80;99.90
21744;DHT22;11034;48.556;9.342;2022-11-23T01:58:31;3.80;99.90
21744;DHT22;11034;48.556;9.342;2022-11-23T02:01:01;3.70;99.90
21744;DHT22;11034;48.556;9.342;2022-11-23T02:03:29;3.60;99.90
21744;DHT22;11034;48.556;9.342;2022-11-23T02:06:01;3.70;99.90
21744;DHT22;11034;48.556;9.342;2022-11-23T02:08:30;3.80;99.90
21744;DHT22;11034;48.556;9.342;2022-11-23T02:10:58;3.90;99.90
21744;DHT22;11034;48.556;9.342;2022-11-23T02:13:28;4.00;99.90
21744;DHT22;11034;48.556;9.342;2022-11-23T02:15:57;3.90;99.90
21744;DHT22;11034;48.556;9.342;2022-11-23T02:18:29;3.90;99.90
21744;DHT22;11034;48.556;9.342;2022-11-23T02:20:58;4.00;99.90
21744;DHT22;11034;48.556;9.342;2022-11-23T02:23:33;4.10;99.90
21744;DHT22;11034;48.556;9.342;2022-11-23T02:26:07;4.10;99.90
21744;DHT22;11034;48.556;9.342;2022-11-23T02:28:38;4.10;99.90
21744;DHT22;11034;48.556;9.342;2022-11-23T02:31:09;4.10;99.90
21744;DHT22;11034;48.556;9.342;2022-11-23T02:33:37;4.20;99.90
21744;DHT22;11034;48.556;9.342;2022-11-23T02:36:34;4.20;99.90
21744;DHT22;11034;48.556;9.342;2022-11-23T02:39:07;4.20;99.90
21744;DHT22;11034;48.556;9.342;2022-11-23T02:41:40;4.20;99.90
21744;DHT22;11034;48.556;9.342;2022-11-23T02:44:20;4.30;99.90
21744;DHT22;11034;48.556;9.342;2022-11-23T02:46:52;4.40;99.90
21744;DHT22;11034;48.556;9.342;2022-11-23T02:49:20;4.40;99.90
21744;DHT22;11034;48.556;9.342;2022-11-23T02:51:48;4.40;99.90
21744;DHT22;11034;48.556;9.342;2022-11-23T02:54:16;4.50;99.90
21744;DHT22;11034;48.556;9.342;2022-11-23T02:56:46;4.40;99.90
21744;DHT22;11034;48.556;9.342;2022-11-23T02:59:14;4.40;99.90
21744;DHT22;11034;48.556;9.342;2022-11-23T03:01:42;4.40;99.90
21744;DHT22;11034;48.556;9.342;2022-11-23T03:04:10;4.40;99.90
21744;DHT22;11034;48.556;9.342;2022-11-23T03:06:38;4.40;99.90
21744;DHT22;11034;48.556;9.342;2022-11-23T03:09:06;4.40;99.90
21744;DHT22;11034;48.556;9.342;2022-11-23T03:11:34;4.30;99.90
21744;DHT22;11034;48.556;9.342;2022-11-23T03:14:04;4.40;99.90
21744;DHT22;11034;48.556;9.342;2022-11-23T03:16:32;4.40;99.90
21744;DHT22;11034;48.556;9.342;2022-11-23T03:19:00;4.40;99.90
21744;DHT22;11034;48.556;9.342;2022-11-23T03:21:28;4.40;99.90
21744;DHT22;11034;48.556;9.342;2022-11-23T03:23:56;4.30;99.90
21744;DHT22;11034;48.556;9.342;2022-11-23T03:26:24;4.30;99.90
21744;DHT22;11034;48.556;9.342;2022-11-23T03:28:52;4.20;99.90
21744;DHT22;11034;48.556;9.342;2022-11-23T03:31:22;4.10;99.90
21744;DHT22;11034;48.556;9.342;2022-11-23T03:33:50;4.10;99.90
21744;DHT22;11034;48.556;9.342;2022-11-23T03:36:18;4.10;99.90
21744;DHT22;11034;48.556;9.342;2022-11-23T03:38:46;4.10;99.90
21744;DHT22;11034;48.556;9.342;2022-11-23T03:41:14;4.00;99.90
21744;DHT22;11034;48.556;9.342;2022-11-23T03:43:42;3.90;99.90
21744;DHT22;11034;48.556;9.342;2022-11-23T03:46:10;3.80;99.90
21744;DHT22;11034;48.556;9.342;2022-11-23T03:48:40;3.80;99.90
21744;DHT22;11034;48.556;9.342;2022-11-23T03:51:08;3.70;99.90
21744;DHT22;11034;48.556;9.342;2022-11-23T03:53:36;3.70;99.90
21744;DHT22;11034;48.556;9.342;2022-11-23T03:56:04;3.90;99.90
21744;DHT22;11034;48.556;9.342;2022-11-23T03:58:32;4.00;99.90
21744;DHT22;11034;48.556;9.342;2022-11-23T04:01:00;4.10;99.90
21744;DHT22;11034;48.556;9.342;2022-11-23T04:03:28;4.20;99.90
21744;DHT22;11034;48.556;9.342;2022-11-23T04:05:58;4.20;99.90
21744;DHT22;11034;48.556;9.342;2022-11-23T04:08:26;4.20;99.90
21744;DHT22;11034;48.556;9.342;2022-11-23T04:10:55;4.20;99.90
21744;DHT22;11034;48.556;9.342;2022-11-23T04:13:23;4.10;99.90
21744;DHT22;11034;48.556;9.342;2022-11-23T04:15:52;4.10;99.90
21744;DHT22;11034;48.556;9.342;2022-11-23T04:18:20;4.10;99.90
21744;DHT22;11034;48.556;9.342;2022-11-23T04:20:48;4.10;99.90
21744;DHT22;11034;48.556;9.342;2022-11-23T04:23:17;4.10;99.90
21744;DHT22;11034;48.556;9.342;2022-11-23T04:25:45;4.10;99.90
21744;DHT22;11034;48.556;9.342;2022-11-23T04:28:13;4.10;99.90
21744;DHT22;11034;48.556;9.342;2022-11-23T04:30:41;4.00;99.90
21744;DHT22;11034;48.556;9.342;2022-11-23T04:33:09;4.00;99.90
21744;DHT22;11034;48.556;9.342;2022-11-23T04:35:38;4.00;99.90
21744;DHT22;11034;48.556;9.342;2022-11-23T04:38:06;4.00;99.90
21744;DHT22;11034;48.556;9.342;2022-11-23T04:40:35;4.00;99.90
21744;DHT22;11034;48.556;9.342;2022-11-23T04:43:03;4.10;99.90
21744;DHT22;11034;48.556;9.342;2022-11-23T04:45:32;4.10;99.90
21744;DHT22;11034;48.556;9.342;2022-11-23T04:48:00;4.20;99.90
21744;DHT22;11034;48.556;9.342;2022-11-23T04:50:28;4.30;99.90
21744;DHT22;11034;48.556;9.342;2022-11-23T04:52:56;4.30;99.90
21744;DHT22;11034;48.556;9.342;2022-11-23T04:55:24;4.40;99.90
21744;DHT22;11034;48.556;9.342;2022-11-23T04:57:53;4.50;99.90
21744;DHT22;11034;48.556;9.342;2022-11-23T05:00:21;4.50;99.90
21744;DHT22;11034;48.556;9.342;2022-11-23T05:02:49;4.60;99.90
21744;DHT22;11034;48.556;9.342;2022-11-23T05:05:17;4.60;99.90
21744;DHT22;11034;48.556;9.342;2022-11-23T05:07:45;4.60;99.90
21744;DHT22;11034;48.556;9.342;2022-11-23T05:10:13;4.60;99.90
21744;DHT22;11034;48.556;9.342;2022-11-23T05:12:44;4.60;99.90
21744;DHT22;11034;48.556;9.342;2022-11-23T05:15:13;4.60;99.90
21744;DHT22;11034;48.556;9.342;2022-11-23T05:17:44;4.60;99.90
21744;DHT22;11034;48.556;9.342;2022-11-23T05:20:12;4.50;99.90
21744;DHT22;11034;48.556;9.342;2022-11-23T05:22:40;4.50;99.90
21744;DHT22;11034;48.556;9.342;2022-11-23T05:25:08;4.50;99.90
21744;DHT22;11034;48.556;9.342;2022-11-23T05:27:36;4.50;99.90
21744;DHT22;11034;48.556;9.342;2022-11-23T05:30:05;4.50;99.90
21744;DHT22;11034;48.556;9.342;2022-11-23T05:32:35;4.40;99.90
21744;DHT22;11034;48.556;9.342;2022-11-23T05:35:04;4.30;99.90
21744;DHT22;11034;48.556;9.342;2022-11-23T05:37:32;4.30;99.90
21744;DHT22;11034;48.556;9.342;2022-11-23T05:40:00;4.30;99.90
21744;DHT22;11034;48.556;9.342;2022-11-23T05:42:29;4.30;99.90
21744;DHT22;11034;48.556;9.342;2022-11-23T05:44:57;4.20;99.90
21744;DHT22;11034;48.556;9.342;2022-11-23T05:47:25;4.20;99.90
21744;DHT22;11034;48.556;9.342;2022-11-23T05:49:54;4.00;99.90
21744;DHT22;11034;48.556;9.342;2022-11-23T05:52:23;4.00;99.90
21744;DHT22;11034;48.556;9.342;2022-11-23T05:54:51;4.00;99.90
21744;DHT22;11034;48.556;9.342;2022-11-23T05:57:20;3.90;99.90
21744;DHT22;11034;48.556;9.342;2022-11-23T05:59:48;3.90;99.90
21744;DHT22;11034;48.556;9.342;2022-11-23T06:02:16;3.90;99.90
21744;DHT22;11034;48.556;9.342;2022-11-23T06:04:44;3.90;99.90
21744;DHT22;11034;48.556;9.342;2022-11-23T06:07:14;3.90;99.90
21744;DHT22;11034;48.556;9.342;2022-11-23T06:09:42;3.90;99.90
21744;DHT22;11034;48.556;9.342;2022-11-23T06:12:10;3.90;99.90
21744;DHT22;11034;48.556;9.342;2022-11-23T06:14:38;3.80;99.90
21744;DHT22;11034;48.556;9.342;2022-11-23T06:17:06;3.70;99.90
21744;DHT22;11034;48.556;9.342;2022-11-23T06:19:34;3.60;99.90
21744;DHT22;11034;48.556;9.342;2022-11-23T06:22:02;3.50;99.90
21744;DHT22;11034;48.556;9.342;2022-11-23T06:24:32;3.40;99.90
21744;DHT22;11034;48.556;9.342;2022-11-23T06:27:00;3.50;99.90
21744;DHT22;11034;48.556;9.342;2022-11-23T06:29:28;3.60;99.90
21744;DHT22;11034;48.556;9.342;2022-11-23T06:31:57;3.60;99.90
21744;DHT22;11034;48.556;9.342;2022-11-23T06:34:25;3.60;99.90
21744;DHT22;11034;48.556;9.342;2022-11-23T06:36:53;3.60;99.90
21744;DHT22;11034;48.556;9.342;2022-11-23T06:39:21;3.60;99.90
21744;DHT22;11034;48.556;9.342;2022-11-23T06:41:50;3.60;99.90
21744;DHT22;11034;48.556;9.342;2022-11-23T06:44:32;3.70;99.90
21744;DHT22;11034;48.556;9.342;2022-11-23T06:47:00;3.70;99.90
21744;DHT22;11034;48.556;9.342;2022-11-23T06:49:28;3.70;99.90
21744;DHT22;11034;48.556;9.342;2022-11-23T06:51:56;3.60;99.90
21744;DHT22;11034;48.556;9.342;2022-11-23T06:54:24;3.50;99.90
21744;DHT22;11034;48.556;9.342;2022-11-23T06:56:54;3.50;99.90
21744;DHT22;11034;48.556;9.342;2022-11-23T06:59:22;3.50;99.90
21744;DHT22;11034;48.556;9.342;2022-11-23T07:01:50;3.60;99.90
21744;DHT22;11034;48.556;9.342;2022-11-23T07:04:18;3.50;99.90
21744;DHT22;11034;48.556;9.342;2022-11-23T07:06:46;3.50;99.90
21744;DHT22;11034;48.556;9.342;2022-11-23T07:09:14;3.50;99.90
21744;DHT22;11034;48.556;9.342;2022-11-23T07:11:42;3.50;99.90
21744;DHT22;11034;48.556;9.342;2022-11-23T07:14:12;3.50;99.90
21744;DHT22;11034;48.556;9.342;2022-11-23T07:16:40;3.50;99.90
21744;DHT22;11034;48.556;9.342;2022-11-23T07:19:08;3.50;99.90
21744;DHT22;11034;48.556;9.342;2022-11-23T07:21:36;3.50;99.90
21744;DHT22;11034;48.556;9.342;2022-11-23T07:24:05;3.70;99.90
21744;DHT22;11034;48.556;9.342;2022-11-23T07:26:33;3.80;99.90
21744;DHT22;11034;48.556;9.342;2022-11-23T07:29:01;3.90;99.90
21744;DHT22;11034;48.556;9.342;2022-11-23T07:31:31;4.00;99.90
21744;DHT22;11034;48.556;9.342;2022-11-23T07:33:59;4.10;99.90
21744;DHT22;11034;48.556;9.342;2022-11-23T07:36:27;4.10;99.90
21744;DHT22;11034;48.556;9.342;2022-11-23T07:38:55;4.10;99.90
21744;DHT22;11034;48.556;9.342;2022-11-23T07:41:23;4.10;99.90
21744;DHT22;11034;48.556;9.342;2022-11-23T07:43:53;4.00;99.90
21744;DHT22;11034;48.556;9.342;2022-11-23T07:46:21;4.00;99.90
21744;DHT22;11034;48.556;9.342;2022-11-23T07:48:51;4.00;99.90
21744;DHT22;11034;48.556;9.342;2022-11-23T07:51:20;3.90;99.90
21744;DHT22;11034;48.556;9.342;2022-11-23T07:53:48;3.80;99.90
21744;DHT22;11034;48.556;9.342;2022-11-23T07:56:16;3.70;99.90
21744;DHT22;11034;48.556;9.342;2022-11-23T07:58:44;3.80;99.90
21744;DHT22;11034;48.556;9.342;2022-11-23T08:01:13;3.90;99.90
21744;DHT22;11034;48.556;9.342;2022-11-23T08:03:43;3.90;99.90
21744;DHT22;11034;48.556;9.342;2022-11-23T08:06:14;4.00;99.90
21744;DHT22;11034;48.556;9.342;2022-11-23T08:08:43;4.00;99.90
21744;DHT22;11034;48.556;9.342;2022-11-23T08:11:11;3.90;99.90
21744;DHT22;11034;48.556;9.342;2022-11-23T08:13:43;3.90;99.90
21744;DHT22;11034;48.556;9.342;2022-11-23T08:16:11;4.00;99.90
21744;DHT22;11034;48.556;9.342;2022-11-23T08:18:39;3.90;99.90
21744;DHT22;11034;48.556;9.342;2022-11-23T08:21:07;3.90;99.90
21744;DHT22;11034;48.556;9.342;2022-11-23T08:23:36;3.90;99.90
21744;DHT22;11034;48.556;9.342;2022-11-23T08:26:05;3.90;99.90
21744;DHT22;11034;48.556;9.342;2022-11-23T08:28:39;3.90;99.90
21744;DHT22;11034;48.556;9.342;2022-11-23T08:31:07;3.90;99.90
21744;DHT22;11034;48.556;9.342;2022-11-23T08:33:37;3.90;99.90
21744;DHT22;11034;48.556;9.342;2022-11-23T08:36:06;3.90;99.90
21744;DHT22;11034;48.556;9.342;2022-11-23T08:38:36;3.90;99.90
21744;DHT22;11034;48.556;9.342;2022-11-23T08:41:05;4.00;99.90
21744;DHT22;11034;48.556;9.342;2022-11-23T08:43:33;4.10;99.90
21744;DHT22;11034;48.556;9.342;2022-11-23T08:46:01;4.10;99.90
21744;DHT22;11034;48.556;9.342;2022-11-23T08:48:36;4.10;99.90
21744;DHT22;11034;48.556;9.342;2022-11-23T08:51:05;4.20;99.90
21744;DHT22;11034;48.556;9.342;2022-11-23T08:53:33;4.30;99.90
21744;DHT22;11034;48.556;9.342;2022-11-23T08:56:03;4.50;99.90
21744;DHT22;11034;48.556;9.342;2022-11-23T08:58:32;4.60;99.90
21744;DHT22;11034;48.556;9.342;2022-11-23T09:01:00;4.80;99.90
21744;DHT22;11034;48.556;9.342;2022-11-23T09:03:28;4.90;99.90
21744;DHT22;11034;48.556;9.342;2022-11-23T09:05:59;5.00;99.90
21744;DHT22;11034;48.556;9.342;2022-11-23T09:08:27;5.10;99.90
21744;DHT22;11034;48.556;9.342;2022-11-23T09:10:58;5.10;99.90
21744;DHT22;11034;48.556;9.342;2022-11-23T09:13:28;5.30;99.90
21744;DHT22;11034;48.556;9.342;2022-11-23T09:15:57;5.30;99.90
21744;DHT22;11034;48.556;9.342;2022-11-23T09:18:26;5.40;99.90
21744;DHT22;11034;48.556;9.342;2022-11-23T09:20:56;5.50;99.90
21744;DHT22;11034;48.556;9.342;2022-11-23T09:23:24;5.50;99.90
21744;DHT22;11034;48.556;9.342;2022-11-23T09:25:53;5.60;99.90
21744;DHT22;11034;48.556;9.342;2022-11-23T09:28:21;5.60;99.90
21744;DHT22;11034;48.556;9.342;2022-11-23T09:30:52;5.70;99.90
21744;DHT22;11034;48.556;9.342;2022-11-23T09:33:20;5.70;99.90
21744;DHT22;11034;48.556;9.342;2022-11-23T09:35:55;5.70;99.90
21744;DHT22;11034;48.556;9.342;2022-11-23T09:38:23;5.70;99.90
21744;DHT22;11034;48.556;9.342;2022-11-23T09:41:22;5.70;99.90
21744;DHT22;11034;48.556;9.342;2022-11-23T09:43:59;5.60;99.90
21744;DHT22;11034;48.556;9.342;2022-11-23T09:46:36;5.70;99.90
21744;DHT22;11034;48.556;9.342;2022-11-23T09:49:12;5.70;99.90
21744;DHT22;11034;48.556;9.342;2022-11-23T09:51:42;5.70;99.90
21744;DHT22;11034;48.556;9.342;2022-11-23T09:54:21;5.70;99.90
21744;DHT22;11034;48.556;9.342;2022-11-23T09:56:50;5.70;99.90
21744;DHT22;11034;48.556;9.342;2022-11-23T09:59:43;5.70;99.90
21744;DHT22;11034;48.556;9.342;2022-11-23T10:02:19;5.70;99.90
21744;DHT22;11034;48.556;9.342;2022-11-23T10:04:50;5.70;99.90
21744;DHT22;11034;48.556;9.342;2022-11-23T10:07:30;5.60;99.90
21744;DHT22;11034;48.556;9.342;2022-11-23T10:10:10;5.60;99.90
21744;DHT22;11034;48.556;9.342;2022-11-23T10:12:48;5.60;99.90
21744;DHT22;11034;48.556;9.342;2022-11-23T10:15:23;5.60;99.90
21744;DHT22;11034;48.556;9.342;2022-11-23T10:18:17;5.60;99.90
21744;DHT22;11034;48.556;9.342;2022-11-23T10:20:53;5.60;99.90
21744;DHT22;11034;48.556;9.342;2022-11-23T10:23:43;5.70;99.90
21744;DHT22;11034;48.556;9.342;2022-11-23T10:26:15;5.70;99.90
21744;DHT22;11034;48.556;9.342;2022-11-23T10:28:45;5.70;99.90
21744;DHT22;11034;48.556;9.342;2022-11-23T10:31:15;5.70;99.90
21744;DHT22;11034;48.556;9.342;2022-11-23T10:33:53;5.70;99.90
21744;DHT22;11034;48.556;9.342;2022-11-23T10:36:22;5.70;99.90
21744;DHT22;11034;48.556;9.342;2022-11-23T10:38:55;5.60;99.90
21744;DHT22;11034;48.556;9.342;2022-11-23T10:41:24;5.60;99.90
21744;DHT22;11034;48.556;9.342;2022-11-23T10:43:56;5.60;99.90
21744;DHT22;11034;48.556;9.342;2022-11-23T10:46:30;5.60;99.90
21744;DHT22;11034;48.556;9.342;2022-11-23T10:49:16;5.60;99.90
21744;DHT22;11034;48.556;9.342;2022-11-23T10:51:49;5.60;99.90
21744;DHT22;11034;48.556;9.342;2022-11-23T10:54:21;5.60;99.90
21744;DHT22;11034;48.556;9.342;2022-11-23T10:56:51;5.60;99.90
21744;DHT22;11034;48.556;9.342;2022-11-23T10:59:34;5.60;99.90
21744;DHT22;11034;48.556;9.342;2022-11-23T11:02:23;5.60;99.90
21744;DHT22;11034;48.556;9.342;2022-11-23T11:05:20;5.60;99.90
21744;DHT22;11034;48.556;9.342;2022-11-23T11:08:13;5.60;99.90
21744;DHT22;11034;48.556;9.342;2022-11-23T11:10:44;5.70;99.90
21744;DHT22;11034;48.556;9.342;2022-11-23T11:13:23;5.70;99.90
21744;DHT22;11034;48.556;9.342;2022-11-23T11:15:53;5.70;99.90
21744;DHT22;11034;48.556;9.342;2022-11-23T11:18:25;5.70;99.90
21744;DHT22;11034;48.556;9.342;2022-11-23T11:21:02;5.70;99.90
21744;DHT22;11034;48.556;9.342;2022-11-23T11:23:30;5.70;99.90
21744;DHT22;11034;48.556;9.342;2022-11-23T11:26:17;5.70;99.90
21744;DHT22;11034;48.556;9.342;2022-11-23T11:28:47;5.80;99.90
21744;DHT22;11034;48.556;9.342;2022-11-23T11:31:32;5.90;99.90
21744;DHT22;11034;48.556;9.342;2022-11-23T11:34:10;5.90;99.90
21744;DHT22;11034;48.556;9.342;2022-11-23T11:36:46;6.00;99.90
21744;DHT22;11034;48.556;9.342;2022-11-23T11:39:19;6.00;99.90
21744;DHT22;11034;48.556;9.342;2022-11-23T11:41:50;6.10;99.90
21744;DHT22;11034;48.556;9.342;2022-11-23T11:44:21;6.20;99.90
21744;DHT22;11034;48.556;9.342;2022-11-23T11:46:55;6.50;99.90
21744;DHT22;11034;48.556;9.342;2022-11-23T11:49:27;6.50;99.90
21744;DHT22;11034;48.556;9.342;2022-11-23T11:52:04;6.50;99.90
21744;DHT22;11034;48.556;9.342;2022-11-23T11:54:39;6.70;99.90
21744;DHT22;11034;48.556;9.342;2022-11-23T11:57:15;6.70;99.90
21744;DHT22;11034;48.556;9.342;2022-11-23T11:59:47;6.80;99.90
21744;DHT22;11034;48.556;9.342;2022-11-23T12:02:22;6.80;99.90
21744;DHT22;11034;48.556;9.342;2022-11-23T12:05:00;6.80;99.90
21744;DHT22;11034;48.556;9.342;2022-11-23T12:07:34;6.80;99.90
21744;DHT22;11034;48.556;9.342;2022-11-23T12:10:08;6.90;99.90
21744;DHT22;11034;48.556;9.342;2022-11-23T12:12:38;7.00;99.90
21744;DHT22;11034;48.556;9.342;2022-11-23T12:15:16;7.10;99.90
21744;DHT22;11034;48.556;9.342;2022-11-23T12:18:18;7.10;99.90
21744;DHT22;11034;48.556;9.342;2022-11-23T12:20:56;7.20;99.90
21744;DHT22;11034;48.556;9.342;2022-11-23T12:23:38;7.20;99.90
21744;DHT22;11034;48.556;9.342;2022-11-23T12:26:23;7.20;99.90
21744;DHT22;11034;48.556;9.342;2022-11-23T12:29:20;7.30;99.90
21744;DHT22;11034;48.556;9.342;2022-11-23T12:31:58;7.40;99.90
21744;DHT22;11034;48.556;9.342;2022-11-23T12:34:49;7.50;99.90
21744;DHT22;11034;48.556;9.342;2022-11-23T12:37:42;7.50;99.90
21744;DHT22;11034;48.556;9.342;2022-11-23T12:40:33;7.50;99.90
21744;DHT22;11034;48.556;9.342;2022-11-23T12:43:10;7.50;99.90
21744;DHT22;11034;48.556;9.342;2022-11-23T12:45:49;7.60;99.90
21744;DHT22;11034;48.556;9.342;2022-11-23T12:48:35;7.60;99.90
21744;DHT22;11034;48.556;9.342;2022-11-23T12:51:18;7.60;99.90
21744;DHT22;11034;48.556;9.342;2022-11-23T12:53:56;7.70;99.90
21744;DHT22;11034;48.556;9.342;2022-11-23T12:56:48;7.70;99.90
21744;DHT22;11034;48.556;9.342;2022-11-23T12:59:18;7.70;99.90
21744;DHT22;11034;48.556;9.342;2022-11-23T13:01:51;7.80;99.90
21744;DHT22;11034;48.556;9.342;2022-11-23T13:04:43;7.80;99.90
21744;DHT22;11034;48.556;9.342;2022-11-23T13:07:29;7.80;99.90
21744;DHT22;11034;48.556;9.342;2022-11-23T13:10:28;7.90;99.90
21744;DHT22;11034;48.556;9.342;2022-11-23T13:13:15;7.80;99.90
21744;DHT22;11034;48.556;9.342;2022-11-23T13:16:16;7.80;99.90
21744;DHT22;11034;48.556;9.342;2022-11-23T13:19:01;7.90;99.90
21744;DHT22;11034;48.556;9.342;2022-11-23T13:21:36;7.90;99.90
21744;DHT22;11034;48.556;9.342;2022-11-23T13:24:24;7.90;99.90
21744;DHT22;11034;48.556;9.342;2022-11-23T13:27:28;7.90;99.90
21744;DHT22;11034;48.556;9.342;2022-11-23T13:30:07;7.80;99.90
21744;DHT22;11034;48.556;9.342;2022-11-23T13:32:52;7.80;99.90
21744;DHT22;11034;48.556;9.342;2022-11-23T13:38:42;7.80;99.90
21744;DHT22;11034;48.556;9.342;2022-11-23T13:44:29;7.80;99.90
21744;DHT22;11034;48.556;9.342;2022-11-23T13:47:14;7.80;99.90
21744;DHT22;11034;48.556;9.342;2022-11-23T13:49:46;7.70;99.90
21744;DHT22;11034;48.556;9.342;2022-11-23T13:52:28;7.60;99.90
21744;DHT22;11034;48.556;9.342;2022-11-23T13:55:17;7.50;99.90
21744;DHT22;11034;48.556;9.342;2022-11-23T14:00:56;7.50;99.90
21744;DHT22;11034;48.556;9.342;2022-11-23T14:03:52;7.40;99.90
21744;DHT22;11034;48.556;9.342;2022-11-23T14:06:43;7.30;99.90
21744;DHT22;11034;48.556;9.342;2022-11-23T14:09:20;7.40;99.90
21744;DHT22;11034;48.556;9.342;2022-11-23T14:12:07;7.40;99.90
21744;DHT22;11034;48.556;9.342;2022-11-23T14:14:55;7.40;99.90
21744;DHT22;11034;48.556;9.342;2022-11-23T14:21:00;7.10;99.90
21744;DHT22;11034;48.556;9.342;2022-11-23T14:24:14;7.00;99.90
21744;DHT22;11034;48.556;9.342;2022-11-23T14:26:56;7.10;99.90
21744;DHT22;11034;48.556;9.342;2022-11-23T14:30:05;6.90;99.90
21744;DHT22;11034;48.556;9.342;2022-11-23T14:32:53;6.90;99.90
21744;DHT22;11034;48.556;9.342;2022-11-23T14:35:31;6.90;99.90
21744;DHT22;11034;48.556;9.342;2022-11-23T14:41:07;7.10;99.90
21744;DHT22;11034;48.556;9.342;2022-11-23T14:43:39;7.10;99.90
21744;DHT22;11034;48.556;9.342;2022-11-23T14:46:14;7.00;99.90
21744;DHT22;11034;48.556;9.342;2022-11-23T14:48:48;6.80;99.90
21744;DHT22;11034;48.556;9.342;2022-11-23T14:51:18;6.80;99.90
21744;DHT22;11034;48.556;9.342;2022-11-23T14:53:50;6.90;99.90
21744;DHT22;11034;48.556;9.342;2022-11-23T14:56:30;6.90;99.90
21744;DHT22;11034;48.556;9.342;2022-11-23T14:59:02;6.80;99.90
21744;DHT22;11034;48.556;9.342;2022-11-23T15:01:31;6.70;99.90
21744;DHT22;11034;48.556;9.342;2022-11-23T15:04:07;6.60;99.90
21744;DHT22;11034;48.556;9.342;2022-11-23T15:06:39;6.60;99.90
21744;DHT22;11034;48.556;9.342;2022-11-23T15:09:18;6.50;99.90
21744;DHT22;11034;48.556;9.342;2022-11-23T15:11:49;6.50;99.90
21744;DHT22;11034;48.556;9.342;2022-11-23T15:14:19;6.60;99.90
21744;DHT22;11034;48.556;9.342;2022-11-23T15:16:47;6.70;99.90
21744;DHT22;11034;48.556;9.342;2022-11-23T15:19:17;6.70;99.90
21744;DHT22;11034;48.556;9.342;2022-11-23T15:21:45;6.70;99.90
21744;DHT22;11034;48.556;9.342;2022-11-23T15:24:23;6.60;99.90
21744;DHT22;11034;48.556;9.342;2022-11-23T15:26:52;6.50;99.90
21744;DHT22;11034;48.556;9.342;2022-11-23T15:29:27;6.50;99.90
21744;DHT22;11034;48.556;9.342;2022-11-23T15:31:56;6.50;99.90
21744;DHT22;11034;48.556;9.342;2022-11-23T15:34:44;6.40;99.90
21744;DHT22;11034;48.556;9.342;2022-11-23T15:37:13;6.30;99.90
21744;DHT22;11034;48.556;9.342;2022-11-23T15:39:43;6.40;99.90
21744;DHT22;11034;48.556;9.342;2022-11-23T15:42:15;6.40;99.90
21744;DHT22;11034;48.556;9.342;2022-11-23T15:44:44;6.50;99.90
21744;DHT22;11034;48.556;9.342;2022-11-23T15:47:22;6.50;99.90
21744;DHT22;11034;48.556;9.342;2022-11-23T15:49:56;6.50;99.90
21744;DHT22;11034;48.556;9.342;2022-11-23T15:52:27;6.40;99.90
21744;DHT22;11034;48.556;9.342;2022-11-23T15:55:01;6.40;99.90
21744;DHT22;11034;48.556;9.342;2022-11-23T15:57:51;6.30;99.90
21744;DHT22;11034;48.556;9.342;2022-11-23T16:00:21;6.40;99.90
21744;DHT22;11034;48.556;9.342;2022-11-23T16:02:51;6.40;99.90
21744;DHT22;11034;48.556;9.342;2022-11-23T16:05:21;6.40;99.90
21744;DHT22;11034;48.556;9.342;2022-11-23T16:07:52;6.50;99.90
21744;DHT22;11034;48.556;9.342;2022-11-23T16:10:23;6.50;99.90
21744;DHT22;11034;48.556;9.342;2022-11-23T16:12:52;6.60;99.90
21744;DHT22;11034;48.556;9.342;2022-11-23T16:15:39;6.70;99.90
21744;DHT22;11034;48.556;9.342;2022-11-23T16:18:20;6.90;99.90
21744;DHT22;11034;48.556;9.342;2022-11-23T16:20:52;7.10;99.90
21744;DHT22;11034;48.556;9.342;2022-11-23T16:23:23;7.10;99.90
21744;DHT22;11034;48.556;9.342;2022-11-23T16:25:55;7.10;99.90
21744;DHT22;11034;48.556;9.342;2022-11-23T16:28:27;7.10;99.90
21744;DHT22;11034;48.556;9.342;2022-11-23T16:30:56;7.10;99.90
21744;DHT22;11034;48.556;9.342;2022-11-23T16:33:24;7.10;99.90
21744;DHT22;11034;48.556;9.342;2022-11-23T16:35:53;7.10;99.90